Date,TemperatureHighF,TemperatureAvgF,TemperatureLowF,DewpointHighF,DewpointAvgF,DewpointLowF,HumidityHigh,HumidityAvg,HumidityLow,PressureMaxIn,PressureMinIn,WindSpeedMaxMPH,WindSpeedAvgMPH,GustSpeedMaxMPH,PrecipitationSumIn
2013-10-17,65.9,55.4,47.9,36.0,27.4,23.0,51,35,22,29.99,29.97,0,0,2,0.00
2013-10-18,70.9,59.4,50.7,28.0,20.9,13.0,36,23,15,30.04,29.98,2,0,5,0.00
2013-10-19,73.4,61.6,54.2,34.0,15.9,3.0,36,18,12,30.06,29.98,3,0,4,0.00
2013-10-20,70.9,58.9,48.5,31.0,20.1,10.0,41,24,13,29.98,29.88,0,0,5,0.00
2013-10-21,73.8,62.5,51.9,32.0,16.7,3.0,34,18,10,29.98,29.92,3,0,9,0.00
2013-10-22,73.5,62.3,51.7,37.0,20.6,15.0,40,21,13,29.99,29.89,2,0,8,0.00
2013-10-23,71.8,60.0,50.9,42.0,24.1,16.0,44,26,16,29.91,29.84,4,0,8,0.00
2013-10-24,69.2,60.8,53.2,44.0,26.7,16.0,50,28,19,30.00,29.86,1,0,4,0.00
2013-10-25,72.6,63.6,58.2,32.0,22.7,16.0,27,21,16,30.07,30.00,4,0,5,0.00
2013-10-26,75.1,64.6,57.6,32.0,25.6,19.0,32,23,17,30.08,29.97,6,0,8,0.00
2013-10-27,68.7,59.4,44.1,43.0,27.8,22.0,89,32,17,29.98,29.71,1,0,7,0.00
2013-10-28,47.9,42.3,36.9,43.0,39.5,35.0,95,90,68,29.94,29.71,3,0,9,0.00
2013-10-29,44.1,39.3,33.6,39.0,36.1,31.0,96,88,78,30.05,29.94,0,0,6,0.00
2013-10-30,55.2,43.1,31.2,39.0,34.0,29.0,97,73,44,30.14,30.04,1,0,4,0.00
2013-10-31,62.5,50.1,37.7,32.0,25.8,18.0,65,41,23,30.18,30.09,1,0,4,0.00
2013-11-1,67.3,55.1,46.0,31.0,26.1,20.0,48,33,22,30.16,30.03,1,0,5,0.00
2013-11-2,65.8,54.5,44.4,33.0,22.2,10.0,55,30,18,30.07,29.90,2,0,6,0.00
2013-11-3,56.7,48.1,38.3,38.0,30.8,24.0,78,53,34,29.90,29.81,0,0,3,0.00
2013-11-4,47.7,41.6,35.2,43.0,37.5,27.0,95,86,65,29.99,29.78,0,0,3,0.00
2013-11-5,56.5,45.7,34.6,33.0,19.0,6.0,72,38,17,30.25,29.99,1,0,3,0.00
2013-11-6,65.0,52.0,40.3,21.0,11.4,3.0,31,21,9,30.32,30.22,0,0,5,0.00
2013-11-7,68.4,58.6,47.7,26.0,15.0,5.0,31,19,9,30.22,30.04,3,0,7,0.00
2013-11-8,67.4,55.9,46.5,23.0,14.5,4.0,30,20,11,30.05,29.96,0,0,2,0.00
2013-11-9,66.7,54.7,44.8,21.0,13.0,1.0,29,20,13,30.12,30.01,2,0,5,0.00
2013-11-10,65.9,57.2,46.7,24.0,16.0,5.0,32,20,13,30.12,30.06,2,0,4,0.00
2013-11-11,71.2,58.1,46.3,31.0,20.8,13.0,35,24,17,30.16,30.06,1,0,5,0.00
2013-11-12,71.1,62.3,53.6,35.0,23.3,11.0,33,23,17,30.20,30.11,3,0,3,0.00
2013-11-13,72.9,62.8,55.1,32.0,24.1,18.0,35,23,16,30.11,29.94,2,0,7,0.00
2013-11-14,70.9,61.0,53.1,30.0,22.6,18.0,33,24,16,29.98,29.74,5,0,7,0.00
2013-11-15,56.8,46.4,41.1,44.0,37.3,25.0,94,74,30,29.75,29.63,2,0,4,0.00
2013-11-16,45.9,42.0,39.2,43.0,40.6,37.0,97,94,80,29.97,29.75,0,0,5,0.00
2013-11-17,53.6,43.1,35.1,46.0,39.5,34.0,98,88,64,30.14,29.97,0,0,6,0.00
2013-11-18,56.1,45.4,38.3,46.0,39.7,33.0,96,81,67,30.20,30.09,2,0,6,0.00
2013-11-19,43.7,42.2,40.3,43.0,41.3,40.0,98,97,95,30.09,29.99,0,0,5,0.00
2013-11-20,46.7,43.1,40.4,45.0,42.3,40.0,98,97,91,30.00,29.93,0,0,1,0.00
2013-11-21,45.7,42.7,37.9,45.0,42.2,37.0,98,98,97,29.93,29.87,0,0,7,0.00
2013-11-22,42.2,36.9,33.6,42.0,36.3,33.0,98,97,95,30.02,29.87,0,0,1,0.00
2013-11-23,41.4,36.6,31.2,39.0,35.3,31.0,98,94,87,30.17,30.01,0,0,0,0.00
2013-11-24,46.3,38.0,32.4,38.0,34.3,30.0,97,86,70,30.28,30.17,1,0,5,0.00
2013-11-25,56.5,44.9,33.6,37.0,32.3,30.0,86,63,42,30.35,30.27,3,0,5,0.00
2013-11-26,59.7,50.6,42.4,37.0,28.8,23.0,66,45,29,30.29,30.11,6,0,7,0.00
2013-11-27,56.4,47.0,37.9,33.0,29.4,24.0,73,52,33,30.10,29.92,1,0,8,0.00
2013-11-28,52.7,44.5,36.3,31.0,28.8,25.0,75,55,42,30.12,29.95,6,0,7,0.00
2013-11-29,52.6,44.3,38.8,45.0,36.9,29.0,94,76,51,30.25,30.12,0,0,5,0.00
2013-11-30,59.2,48.7,41.8,44.0,38.3,33.0,89,69,39,30.26,30.16,4,0,8,0.00
2013-12-1,61.7,50.9,45.2,35.0,28.9,19.0,60,44,24,30.28,30.18,3,0,6,0.00
2013-12-2,63.3,52.2,43.1,29.0,22.4,15.0,51,32,22,30.20,29.92,1,0,6,0.00
2013-12-3,53.8,45.7,40.5,43.0,32.0,20.0,97,63,33,29.92,29.71,4,0,9,0.00
2013-12-4,41.4,34.6,28.1,40.0,30.7,24.0,97,86,53,30.00,29.73,0,0,9,0.00
2013-12-5,39.1,32.1,26.9,31.0,27.8,22.0,95,84,57,30.16,29.99,5,0,8,0.00
2013-12-6,37.1,31.3,25.4,31.0,27.5,22.0,96,86,72,30.26,30.16,0,0,6,0.00
2013-12-7,34.1,31.4,28.4,33.0,29.9,27.0,96,94,84,30.19,30.08,0,0,9,0.00
2013-12-8,34.1,30.4,27.0,31.0,28.1,24.0,96,91,86,30.26,30.15,0,0,3,0.00
2013-12-9,39.3,29.9,22.3,25.0,20.0,11.0,90,69,36,30.43,30.25,4,0,8,0.00
2013-12-10,51.8,40.2,30.5,26.0,17.1,9.0,65,42,22,30.41,30.21,4,0,6,0.00
2013-12-11,55.4,45.8,37.9,25.0,12.8,3.0,52,27,17,30.24,30.19,4,0,7,0.00
2013-12-12,54.2,44.6,36.5,24.0,20.2,13.0,62,39,25,30.25,30.16,2,0,7,0.00
2013-12-13,52.1,43.3,36.7,30.0,22.8,17.0,57,45,37,30.30,30.16,3,0,5,0.00
2013-12-14,56.2,44.4,36.7,22.0,17.8,13.0,50,35,23,30.39,30.28,4,0,5,0.00
2013-12-15,67.6,54.0,40.0,35.0,19.8,11.0,42,27,15,30.36,30.20,3,0,5,0.00
2013-12-16,73.2,61.5,51.5,36.0,24.6,20.0,42,25,16,30.22,30.12,5,0,6,0.00
2013-12-17,71.8,63.2,56.8,34.0,23.8,18.0,40,23,16,30.14,29.99,4,0,6,0.00
2013-12-18,63.8,52.9,35.4,33.0,23.8,19.0,90,34,22,29.98,29.77,2,0,9,0.00
2013-12-19,38.0,35.1,31.9,36.0,33.8,31.0,97,95,84,29.82,29.69,2,0,7,0.00
2013-12-20,46.3,36.5,29.9,37.0,31.2,28.0,94,82,61,30.01,29.81,4,0,7,0.00
2013-12-21,46.2,38.1,30.5,41.0,33.2,27.0,96,83,54,30.17,29.96,5,0,6,0.00
2013-12-22,54.3,44.8,36.7,32.0,28.6,25.0,68,54,38,30.34,30.16,4,0,8,0.00
2013-12-23,58.7,47.3,38.1,34.0,28.9,21.0,68,51,31,30.40,30.30,4,0,6,0.00
2013-12-24,52.9,49.6,45.7,31.0,22.8,18.0,45,35,27,30.27,30.17,3,0,5,0.00
2013-12-25,62.0,51.1,39.9,25.0,16.4,7.0,48,26,14,30.28,30.19,4,0,7,0.00
2013-12-26,61.6,50.3,39.9,18.0,9.5,1.0,36,20,11,30.25,30.16,5,0,6,0.00
2013-12-27,64.8,54.1,46.9,19.0,11.2,2.0,27,19,11,30.23,30.10,5,0,6,0.00
2013-12-28,59.4,51.7,43.3,23.0,13.4,2.0,37,22,12,30.09,29.95,9,0,20,0.00
2013-12-29,56.4,47.5,38.1,15.0,7.5,-21.0,32,20,4,30.22,30.01,4,0,14,0.00
2013-12-30,61.5,51.3,38.7,19.0,5.9,0.0,29,16,9,30.34,30.21,4,0,6,0.00
2013-12-31,60.9,51.3,42.0,17.0,12.5,5.0,34,23,11,30.23,30.13,1,0,6,0.00
2014-1-1,65.0,57.7,42.1,22.0,17.4,13.0,33,21,16,30.19,30.12,3,0,5,0.00
2014-1-2,64.5,63.3,61.5,27.0,25.2,23.0,25,24,21,30.12,30.04,2,0,8,0.00